sensor_id;sensor_type;location;lat;lon;timestamp;pressure;altitude;pressure_sealevel;temperature;humidity
6530;BME280;3298;42.688;23.366;2023-03-20T00:00:42;51739.59;;;-145.06;59.23
6530;BME280;3298;42.688;23.366;2023-03-20T00:03:10;51743.69;;;-145.06;59.31
6530;BME280;3298;42.688;23.366;2023-03-20T00:05:37;51723.22;;;-145.06;59.38
6530;BME280;3298;42.688;23.366;2023-03-20T00:08:05;51737.56;;;-145.06;59.82
6530;BME280;3298;42.688;23.366;2023-03-20T00:10:35;51725.28;;;-145.06;59.40
6530;BME280;3298;42.688;23.366;2023-03-20T00:13:04;51731.41;;;-145.06;59.06
6530;BME280;3298;42.688;23.366;2023-03-20T00:15:35;51743.69;;;-145.06;59.10
6530;BME280;3298;42.688;23.366;2023-03-20T00:18:05;51721.19;;;-145.06;59.51
6530;BME280;3298;42.688;23.366;2023-03-20T00:20:37;51751.88;;;-145.06;59.56
6530;BME280;3298;42.688;23.366;2023-03-20T00:23:04;51710.94;;;-145.06;60.13
6530;BME280;3298;42.688;23.366;2023-03-20T00:25:30;51717.09;;;-145.06;60.50
6530;BME280;3298;42.688;23.366;2023-03-20T00:27:58;51727.31;;;-145.06;60.07
6530;BME280;3298;42.688;23.366;2023-03-20T00:30:28;51713.00;;;-145.06;59.71
6530;BME280;3298;42.688;23.366;2023-03-20T00:32:56;51751.88;;;-145.06;60.03
6530;BME280;3298;42.688;23.366;2023-03-20T00:35:26;51725.28;;;-145.06;60.03
6530;BME280;3298;42.688;23.366;2023-03-20T00:37:54;51717.09;;;-145.06;60.29
6530;BME280;3298;42.688;23.366;2023-03-20T00:40:24;51725.28;;;-145.06;60.68
6530;BME280;3298;42.688;23.366;2023-03-20T00:42:58;51696.63;;;-145.06;60.53
6530;BME280;3298;42.688;23.366;2023-03-20T00:45:27;51747.78;;;-145.06;60.43
6530;BME280;3298;42.688;23.366;2023-03-20T00:47:55;51739.59;;;-145.06;60.99
6530;BME280;3298;42.688;23.366;2023-03-20T00:50:24;51729.38;;;-145.06;61.18
6530;BME280;3298;42.688;23.366;2023-03-20T00:52:52;51745.75;;;-145.06;60.98
6530;BME280;3298;42.688;23.366;2023-03-20T00:55:21;51717.09;;;-145.06;61.75
6530;BME280;3298;42.688;23.366;2023-03-20T00:57:50;51729.38;;;-145.06;62.24
6530;BME280;3298;42.688;23.366;2023-03-20T01:00:29;51743.69;;;-145.06;62.63
6530;BME280;3298;42.688;23.366;2023-03-20T01:02:57;51735.50;;;-145.06;61.86
6530;BME280;3298;42.688;23.366;2023-03-20T01:05:25;51741.66;;;-145.06;61.89
6530;BME280;3298;42.688;23.366;2023-03-20T01:07:54;51696.63;;;-145.06;61.93
6530;BME280;3298;42.688;23.366;2023-03-20T01:10:31;51700.72;;;-145.06;61.86
6530;BME280;3298;42.688;23.366;2023-03-20T01:12:59;51741.66;;;-145.06;61.63
6530;BME280;3298;42.688;23.366;2023-03-20T01:15:30;51725.28;;;-145.06;61.88
6530;BME280;3298;42.688;23.366;2023-03-20T01:17:57;51723.22;;;-145.06;61.89
6530;BME280;3298;42.688;23.366;2023-03-20T01:20:26;51725.28;;;-145.06;62.21
6530;BME280;3298;42.688;23.366;2023-03-20T01:22:54;51737.56;;;-145.06;62.23
6530;BME280;3298;42.688;23.366;2023-03-20T01:25:21;51733.47;;;-145.06;62.84
6530;BME280;3298;42.688;23.366;2023-03-20T01:27:49;51737.56;;;-145.06;62.78
6530;BME280;3298;42.688;23.366;2023-03-20T01:30:21;51706.84;;;-145.06;62.95
6530;BME280;3298;42.688;23.366;2023-03-20T01:32:50;51721.19;;;-145.06;62.84
6530;BME280;3298;42.688;23.366;2023-03-20T01:35:19;51739.59;;;-145.06;62.61
6530;BME280;3298;42.688;23.366;2023-03-20T01:37:48;51725.28;;;-145.06;62.33
6530;BME280;3298;42.688;23.366;2023-03-20T01:40:31;51729.38;;;-145.06;62.62
6530;BME280;3298;42.688;23.366;2023-03-20T01:42:59;51733.47;;;-145.06;62.58
6530;BME280;3298;42.688;23.366;2023-03-20T01:45:31;51739.59;;;-145.06;62.30
6530;BME280;3298;42.688;23.366;2023-03-20T01:48:04;51721.19;;;-145.06;63.30
6530;BME280;3298;42.688;23.366;2023-03-20T01:50:38;51713.00;;;-145.06;62.55
6530;BME280;3298;42.688;23.366;2023-03-20T01:53:09;51721.19;;;-145.06;62.28
6530;BME280;3298;42.688;23.366;2023-03-20T01:55:39;51727.31;;;-145.06;62.98
6530;BME280;3298;42.688;23.366;2023-03-20T01:58:10;51721.19;;;-145.06;63.00
6530;BME280;3298;42.688;23.366;2023-03-20T02:00:38;51741.66;;;-145.06;63.13
6530;BME280;3298;42.688;23.366;2023-03-20T02:03:08;51755.97;;;-145.06;63.27
6530;BME280;3298;42.688;23.366;2023-03-20T02:05:35;51729.38;;;-145.06;63.53
6530;BME280;3298;42.688;23.366;2023-03-20T02:08:16;51729.38;;;-145.06;63.59
6530;BME280;3298;42.688;23.366;2023-03-20T02:10:44;51747.78;;;-145.06;63.56
6530;BME280;3298;42.688;23.366;2023-03-20T02:13:12;51715.03;;;-145.06;64.21
6530;BME280;3298;42.688;23.366;2023-03-20T02:15:58;51762.13;;;-145.06;63.98
6530;BME280;3298;42.688;23.366;2023-03-20T02:18:27;51741.66;;;-145.06;63.64
6530;BME280;3298;42.688;23.366;2023-03-20T02:21:29;51721.19;;;-145.06;63.29
6530;BME280;3298;42.688;23.366;2023-03-20T02:24:42;51725.28;;;-145.06;63.82
6530;BME280;3298;42.688;23.366;2023-03-20T02:27:22;51725.28;;;-145.06;63.77
6530;BME280;3298;42.688;23.366;2023-03-20T02:30:11;51729.38;;;-145.06;63.38
6530;BME280;3298;42.688;23.366;2023-03-20T02:33:13;51696.63;;;-145.06;63.63
6530;BME280;3298;42.688;23.366;2023-03-20T02:41:47;51721.19;;;-145.06;64.31
6530;BME280;3298;42.688;23.366;2023-03-20T02:44:21;51704.81;;;-145.06;64.92
6530;BME280;3298;42.688;23.366;2023-03-20T02:46:55;51719.13;;;-145.06;65.13
6530;BME280;3298;42.688;23.366;2023-03-20T02:49:39;51737.56;;;-145.06;65.23
6530;BME280;3298;42.688;23.366;2023-03-20T02:52:15;51713.00;;;-145.06;66.04
6530;BME280;3298;42.688;23.366;2023-03-20T02:54:51;51700.72;;;-145.06;66.03
6530;BME280;3298;42.688;23.366;2023-03-20T02:57:30;51733.47;;;-145.06;66.44
6530;BME280;3298;42.688;23.366;2023-03-20T03:00:03;51729.38;;;-145.06;66.46
6530;BME280;3298;42.688;23.366;2023-03-20T03:02:36;51741.66;;;-145.06;66.27
6530;BME280;3298;42.688;23.366;2023-03-20T03:05:09;51721.19;;;-145.06;66.24
6530;BME280;3298;42.688;23.366;2023-03-20T03:07:38;51737.56;;;-145.06;66.18
6530;BME280;3298;42.688;23.366;2023-03-20T03:10:10;51696.63;;;-145.06;66.25
6530;BME280;3298;42.688;23.366;2023-03-20T03:12:43;51729.38;;;-145.06;66.46
6530;BME280;3298;42.688;23.366;2023-03-20T03:15:15;51696.63;;;-145.06;65.73
6530;BME280;3298;42.688;23.366;2023-03-20T03:17:43;51690.47;;;-145.06;66.49
6530;BME280;3298;42.688;23.366;2023-03-20T03:20:20;51700.72;;;-145.06;66.90
6530;BME280;3298;42.688;23.366;2023-03-20T03:22:48;51739.59;;;-145.06;66.74
6530;BME280;3298;42.688;23.366;2023-03-20T03:25:15;51715.03;;;-145.06;67.10
6530;BME280;3298;42.688;23.366;2023-03-20T03:27:45;51721.19;;;-145.06;66.58
6530;BME280;3298;42.688;23.366;2023-03-20T03:30:17;51725.28;;;-145.06;66.55
6530;BME280;3298;42.688;23.366;2023-03-20T03:32:48;51723.22;;;-145.06;66.70
6530;BME280;3298;42.688;23.366;2023-03-20T03:35:18;51717.09;;;-145.06;66.87
6530;BME280;3298;42.688;23.366;2023-03-20T03:37:52;51753.94;;;-145.06;67.07
6530;BME280;3298;42.688;23.366;2023-03-20T03:40:29;51731.41;;;-145.06;66.99
6530;BME280;3298;42.688;23.366;2023-03-20T03:43:07;51749.84;;;-145.06;67.57
6530;BME280;3298;42.688;23.366;2023-03-20T03:45:37;51713.00;;;-145.06;67.40
6530;BME280;3298;42.688;23.366;2023-03-20T03:48:07;51713.00;;;-145.06;67.81
6530;BME280;3298;42.688;23.366;2023-03-20T03:50:40;51688.44;;;-145.06;67.77
6530;BME280;3298;42.688;23.366;2023-03-20T03:53:13;51713.00;;;-145.06;67.65
6530;BME280;3298;42.688;23.366;2023-03-20T03:55:45;51733.47;;;-145.06;67.55
6530;BME280;3298;42.688;23.366;2023-03-20T03:58:18;51745.75;;;-145.06;67.94
6530;BME280;3298;42.688;23.366;2023-03-20T04:00:48;51717.09;;;-145.06;67.97
6530;BME280;3298;42.688;23.366;2023-03-20T04:03:17;51747.78;;;-145.06;67.56
6530;BME280;3298;42.688;23.366;2023-03-20T04:05:47;51727.31;;;-145.06;67.30
6530;BME280;3298;42.688;23.366;2023-03-20T04:08:16;51729.38;;;-145.06;67.14
6530;BME280;3298;42.688;23.366;2023-03-20T04:10:43;51715.03;;;-145.06;67.61
6530;BME280;3298;42.688;23.366;2023-03-20T04:13:10;51729.38;;;-145.06;67.32
6530;BME280;3298;42.688;23.366;2023-03-20T04:15:38;51680.25;;;-145.06;67.74
6530;BME280;3298;42.688;23.366;2023-03-20T04:18:05;51725.28;;;-145.06;67.03
6530;BME280;3298;42.688;23.366;2023-03-20T04:20:32;51708.91;;;-145.06;66.97
6530;BME280;3298;42.688;23.366;2023-03-20T04:22:59;51719.13;;;-145.06;67.13
6530;BME280;3298;42.688;23.366;2023-03-20T04:25:26;51725.28;;;-145.06;66.66
6530;BME280;3298;42.688;23.366;2023-03-20T04:27:53;51733.47;;;-145.06;67.02
6530;BME280;3298;42.688;23.366;2023-03-20T04:30:20;51731.41;;;-145.06;65.77
6530;BME280;3298;42.688;23.366;2023-03-20T04:32:48;51733.47;;;-145.06;65.50
6530;BME280;3298;42.688;23.366;2023-03-20T04:35:15;51727.31;;;-145.06;65.54
6530;BME280;3298;42.688;23.366;2023-03-20T04:37:42;51743.69;;;-145.06;65.92
6530;BME280;3298;42.688;23.366;2023-03-20T04:40:10;51723.22;;;-145.06;66.08
6530;BME280;3298;42.688;23.366;2023-03-20T04:42:37;51706.84;;;-145.06;66.09
6530;BME280;3298;42.688;23.366;2023-03-20T04:45:05;51719.13;;;-145.06;66.56
6530;BME280;3298;42.688;23.366;2023-03-20T04:47:32;51692.53;;;-145.06;65.91
6530;BME280;3298;42.688;23.366;2023-03-20T04:50:00;51708.91;;;-145.06;65.74
6530;BME280;3298;42.688;23.366;2023-03-20T04:52:27;51717.09;;;-145.06;65.20
6530;BME280;3298;42.688;23.366;2023-03-20T04:54:53;51749.84;;;-145.06;65.08
6530;BME280;3298;42.688;23.366;2023-03-20T04:57:20;51702.75;;;-145.06;65.09
6530;BME280;3298;42.688;23.366;2023-03-20T04:59:47;51733.47;;;-145.06;65.12
6530;BME280;3298;42.688;23.366;2023-03-20T05:02:14;51725.28;;;-145.06;63.48
6530;BME280;3298;42.688;23.366;2023-03-20T05:04:42;51704.81;;;-145.06;62.91
6530;BME280;3298;42.688;23.366;2023-03-20T05:07:10;51721.19;;;-145.06;63.17
6530;BME280;3298;42.688;23.366;2023-03-20T05:09:37;51704.81;;;-145.06;63.95
6530;BME280;3298;42.688;23.366;2023-03-20T05:12:04;51713.00;;;-145.06;64.70
6530;BME280;3298;42.688;23.366;2023-03-20T05:14:31;51745.75;;;-145.06;64.14
6530;BME280;3298;42.688;23.366;2023-03-20T05:16:58;51713.00;;;-145.06;64.25
6530;BME280;3298;42.688;23.366;2023-03-20T05:19:25;51729.38;;;-145.06;64.63
6530;BME280;3298;42.688;23.366;2023-03-20T05:21:52;51702.75;;;-145.06;63.42
6530;BME280;3298;42.688;23.366;2023-03-20T05:24:20;51739.59;;;-145.06;64.00
6530;BME280;3298;42.688;23.366;2023-03-20T05:26:47;51725.28;;;-145.06;62.33
6530;BME280;3298;42.688;23.366;2023-03-20T05:29:14;51698.66;;;-145.06;62.38
6530;BME280;3298;42.688;23.366;2023-03-20T05:31:40;51706.84;;;-145.06;61.62
6530;BME280;3298;42.688;23.366;2023-03-20T05:34:07;51723.22;;;-145.06;61.19
6530;BME280;3298;42.688;23.366;2023-03-20T05:36:35;51733.47;;;-145.06;60.08
6530;BME280;3298;42.688;23.366;2023-03-20T05:39:02;51698.66;;;-145.06;60.14
6530;BME280;3298;42.688;23.366;2023-03-20T05:41:31;51719.13;;;-145.06;59.82
6530;BME280;3298;42.688;23.366;2023-03-20T05:43:57;51725.28;;;-145.06;59.67
6530;BME280;3298;42.688;23.366;2023-03-20T05:46:24;51708.91;;;-145.06;60.04
6530;BME280;3298;42.688;23.366;2023-03-20T05:48:51;51735.50;;;-145.06;59.12
6530;BME280;3298;42.688;23.366;2023-03-20T05:51:19;51700.72;;;-145.06;59.06
6530;BME280;3298;42.688;23.366;2023-03-20T05:53:45;51717.09;;;-145.06;58.75
6530;BME280;3298;42.688;23.366;2023-03-20T05:56:12;51725.28;;;-145.06;58.96
6530;BME280;3298;42.688;23.366;2023-03-20T05:58:40;51721.19;;;-145.06;58.53
6530;BME280;3298;42.688;23.366;2023-03-20T06:01:07;51733.47;;;-145.06;58.02
6530;BME280;3298;42.688;23.366;2023-03-20T06:03:34;51729.38;;;-145.06;58.61
6530;BME280;3298;42.688;23.366;2023-03-20T06:06:01;51688.44;;;-145.06;58.45
6530;BME280;3298;42.688;23.366;2023-03-20T06:08:28;51723.22;;;-145.06;58.10
6530;BME280;3298;42.688;23.366;2023-03-20T06:10:55;51713.00;;;-145.06;57.87
6530;BME280;3298;42.688;23.366;2023-03-20T06:13:22;51731.41;;;-145.06;58.41
6530;BME280;3298;42.688;23.366;2023-03-20T06:15:50;51727.31;;;-145.06;57.86
6530;BME280;3298;42.688;23.366;2023-03-20T06:18:17;51745.75;;;-145.06;57.55
6530;BME280;3298;42.688;23.366;2023-03-20T06:20:44;51721.19;;;-145.06;57.43
6530;BME280;3298;42.688;23.366;2023-03-20T06:23:11;51737.56;;;-145.06;56.89
6530;BME280;3298;42.688;23.366;2023-03-20T06:25:38;51721.19;;;-145.06;56.87
6530;BME280;3298;42.688;23.366;2023-03-20T06:28:04;51725.28;;;-145.06;56.47
6530;BME280;3298;42.688;23.366;2023-03-20T06:30:31;51731.41;;;-145.06;56.72
6530;BME280;3298;42.688;23.366;2023-03-20T06:33:02;51713.00;;;-145.06;56.89
6530;BME280;3298;42.688;23.366;2023-03-20T06:35:29;51721.19;;;-145.06;56.48
6530;BME280;3298;42.688;23.366;2023-03-20T06:37:56;51725.28;;;-145.06;56.15
6530;BME280;3298;42.688;23.366;2023-03-20T06:40:23;51690.47;;;-145.06;55.82
6530;BME280;3298;42.688;23.366;2023-03-20T06:42:51;51725.28;;;-145.06;55.55
6530;BME280;3298;42.688;23.366;2023-03-20T06:45:18;51717.09;;;-145.06;55.52
6530;BME280;3298;42.688;23.366;2023-03-20T06:47:45;51719.13;;;-145.06;55.49
6530;BME280;3298;42.688;23.366;2023-03-20T06:50:14;51729.38;;;-145.06;55.31
6530;BME280;3298;42.688;23.366;2023-03-20T06:52:41;51725.28;;;-145.06;55.25
6530;BME280;3298;42.688;23.366;2023-03-20T06:55:08;51717.09;;;-145.06;55.17
6530;BME280;3298;42.688;23.366;2023-03-20T06:57:35;51725.28;;;-145.06;55.17
6530;BME280;3298;42.688;23.366;2023-03-20T07:00:02;51733.47;;;-145.06;54.91
6530;BME280;3298;42.688;23.366;2023-03-20T07:02:29;51741.66;;;-145.06;54.65
6530;BME280;3298;42.688;23.366;2023-03-20T07:04:56;51735.50;;;-145.06;54.15
6530;BME280;3298;42.688;23.366;2023-03-20T07:07:25;51729.38;;;-145.06;54.43
6530;BME280;3298;42.688;23.366;2023-03-20T07:09:51;51729.38;;;-145.06;54.26
6530;BME280;3298;42.688;23.366;2023-03-20T07:12:18;51745.75;;;-145.06;53.92
6530;BME280;3298;42.688;23.366;2023-03-20T07:14:45;51729.38;;;-145.06;53.85
6530;BME280;3298;42.688;23.366;2023-03-20T07:17:12;51741.66;;;-145.06;54.01
6530;BME280;3298;42.688;23.366;2023-03-20T07:19:39;51737.56;;;-145.06;53.79
6530;BME280;3298;42.688;23.366;2023-03-20T07:22:08;51700.72;;;-145.06;53.40
6530;BME280;3298;42.688;23.366;2023-03-20T07:24:38;51723.22;;;-145.06;53.32
6530;BME280;3298;42.688;23.366;2023-03-20T07:27:05;51751.88;;;-145.06;52.67
6530;BME280;3298;42.688;23.366;2023-03-20T07:29:32;51747.78;;;-145.06;52.18
6530;BME280;3298;42.688;23.366;2023-03-20T07:31:59;51745.75;;;-145.06;52.22
6530;BME280;3298;42.688;23.366;2023-03-20T07:34:26;51745.75;;;-145.06;52.04
6530;BME280;3298;42.688;23.366;2023-03-20T07:36:53;51741.66;;;-145.06;51.57
6530;BME280;3298;42.688;23.366;2023-03-20T07:39:21;51731.41;;;-145.06;51.07
6530;BME280;3298;42.688;23.366;2023-03-20T07:41:49;51753.94;;;-145.06;51.25
6530;BME280;3298;42.688;23.366;2023-03-20T07:44:16;51743.69;;;-145.06;51.38
6530;BME280;3298;42.688;23.366;2023-03-20T07:46:43;51725.28;;;-145.06;51.39
6530;BME280;3298;42.688;23.366;2023-03-20T07:49:11;51743.69;;;-145.06;51.35
6530;BME280;3298;42.688;23.366;2023-03-20T07:51:38;51749.84;;;-145.06;51.62
6530;BME280;3298;42.688;23.366;2023-03-20T07:54:05;51723.22;;;-145.06;50.88
6530;BME280;3298;42.688;23.366;2023-03-20T07:56:32;51758.03;;;-145.06;50.81
6530;BME280;3298;42.688;23.366;2023-03-20T07:59:00;51729.38;;;-145.06;50.47
6530;BME280;3298;42.688;23.366;2023-03-20T08:01:27;51739.59;;;-145.06;50.10
6530;BME280;3298;42.688;23.366;2023-03-20T08:03:53;51745.75;;;-145.06;49.88
6530;BME280;3298;42.688;23.366;2023-03-20T08:06:20;51766.22;;;-145.06;49.87
6530;BME280;3298;42.688;23.366;2023-03-20T08:08:47;51745.75;;;-145.06;49.79
6530;BME280;3298;42.688;23.366;2023-03-20T08:11:16;51741.66;;;-145.06;49.51
6530;BME280;3298;42.688;23.366;2023-03-20T08:13:43;51760.06;;;-145.06;49.53
6530;BME280;3298;42.688;23.366;2023-03-20T08:16:11;51723.22;;;-145.06;49.27
6530;BME280;3298;42.688;23.366;2023-03-20T08:18:38;51749.84;;;-145.06;48.92
6530;BME280;3298;42.688;23.366;2023-03-20T08:21:05;51745.75;;;-145.06;49.58
6530;BME280;3298;42.688;23.366;2023-03-20T08:23:31;51725.28;;;-145.06;49.65
6530;BME280;3298;42.688;23.366;2023-03-20T08:25:58;51749.84;;;-145.06;49.09
6530;BME280;3298;42.688;23.366;2023-03-20T08:28:25;51729.38;;;-145.06;48.33
6530;BME280;3298;42.688;23.366;2023-03-20T08:30:52;51733.47;;;-145.06;48.67
6530;BME280;3298;42.688;23.366;2023-03-20T08:33:20;51768.25;;;-145.06;48.25
6530;BME280;3298;42.688;23.366;2023-03-20T08:35:54;51749.84;;;-145.06;48.54
6530;BME280;3298;42.688;23.366;2023-03-20T08:38:21;51723.22;;;-145.06;48.82
6530;BME280;3298;42.688;23.366;2023-03-20T08:40:48;51741.66;;;-145.06;48.39
6530;BME280;3298;42.688;23.366;2023-03-20T08:43:15;51743.69;;;-145.06;48.29
6530;BME280;3298;42.688;23.366;2023-03-20T08:45:42;51758.03;;;-145.06;48.12
6530;BME280;3298;42.688;23.366;2023-03-20T08:48:09;51772.34;;;-145.06;48.05
6530;BME280;3298;42.688;23.366;2023-03-20T08:50:38;51747.78;;;-145.06;47.78
6530;BME280;3298;42.688;23.366;2023-03-20T08:53:05;51717.09;;;-145.06;47.90
6530;BME280;3298;42.688;23.366;2023-03-20T08:55:32;51717.09;;;-145.06;47.32
6530;BME280;3298;42.688;23.366;2023-03-20T08:57:59;51758.03;;;-145.06;47.66
6530;BME280;3298;42.688;23.366;2023-03-20T09:00:26;51749.84;;;-145.06;47.55
6530;BME280;3298;42.688;23.366;2023-03-20T09:02:53;51729.38;;;-145.06;46.86
6530;BME280;3298;42.688;23.366;2023-03-20T09:05:20;51762.13;;;-145.06;46.42
6530;BME280;3298;42.688;23.366;2023-03-20T09:07:48;51753.94;;;-145.06;46.68
6530;BME280;3298;42.688;23.366;2023-03-20T09:10:16;51749.84;;;-145.06;46.16
6530;BME280;3298;42.688;23.366;2023-03-20T09:12:42;51749.84;;;-145.06;46.33
6530;BME280;3298;42.688;23.366;2023-03-20T09:15:10;51733.47;;;-145.06;45.95
6530;BME280;3298;42.688;23.366;2023-03-20T09:17:37;51758.03;;;-145.06;46.31
6530;BME280;3298;42.688;23.366;2023-03-20T09:20:04;51729.38;;;-145.06;45.86
6530;BME280;3298;42.688;23.366;2023-03-20T09:22:32;51749.84;;;-145.06;46.12
6530;BME280;3298;42.688;23.366;2023-03-20T09:25:00;51741.66;;;-145.06;46.13
6530;BME280;3298;42.688;23.366;2023-03-20T09:27:27;51762.13;;;-145.06;45.79
6530;BME280;3298;42.688;23.366;2023-03-20T09:29:54;51766.22;;;-145.06;45.89
6530;BME280;3298;42.688;23.366;2023-03-20T09:32:20;51741.66;;;-145.06;44.88
6530;BME280;3298;42.688;23.366;2023-03-20T09:34:47;51733.47;;;-145.06;44.85
6530;BME280;3298;42.688;23.366;2023-03-20T09:37:14;51778.50;;;-145.06;44.66
6530;BME280;3298;42.688;23.366;2023-03-20T09:39:40;51782.59;;;-145.06;44.85
6530;BME280;3298;42.688;23.366;2023-03-20T09:42:19;51766.22;;;-145.06;45.05
6530;BME280;3298;42.688;23.366;2023-03-20T09:44:54;51751.88;;;-145.06;44.54
6530;BME280;3298;42.688;23.366;2023-03-20T09:47:30;51778.50;;;-145.06;44.54
6530;BME280;3298;42.688;23.366;2023-03-20T09:50:16;51768.25;;;-145.06;44.65
6530;BME280;3298;42.688;23.366;2023-03-20T09:52:53;51807.16;;;-145.06;44.35
6530;BME280;3298;42.688;23.366;2023-03-20T09:55:26;51749.84;;;-145.06;44.57
6530;BME280;3298;42.688;23.366;2023-03-20T09:58:00;51755.97;;;-145.06;44.05
6530;BME280;3298;42.688;23.366;2023-03-20T10:00:30;51764.16;;;-145.06;43.74
6530;BME280;3298;42.688;23.366;2023-03-20T10:02:59;51749.84;;;-145.06;43.15
6530;BME280;3298;42.688;23.366;2023-03-20T10:05:28;51758.03;;;-145.06;43.49
6530;BME280;3298;42.688;23.366;2023-03-20T10:07:57;51766.22;;;-145.06;42.73
6530;BME280;3298;42.688;23.366;2023-03-20T10:10:30;51778.50;;;-145.06;42.97
6530;BME280;3298;42.688;23.366;2023-03-20T10:13:11;51770.31;;;-145.06;42.66
6530;BME280;3298;42.688;23.366;2023-03-20T10:15:46;51778.50;;;-145.06;42.68
6530;BME280;3298;42.688;23.366;2023-03-20T10:18:19;51770.31;;;-145.06;42.37
6530;BME280;3298;42.688;23.366;2023-03-20T10:20:53;51782.59;;;-145.06;41.95
6530;BME280;3298;42.688;23.366;2023-03-20T10:23:26;51770.31;;;-145.06;41.98
6530;BME280;3298;42.688;23.366;2023-03-20T10:25:59;51753.94;;;-145.06;41.72
6530;BME280;3298;42.688;23.366;2023-03-20T10:28:34;51770.31;;;-145.06;41.50
6530;BME280;3298;42.688;23.366;2023-03-20T10:31:12;51764.16;;;-145.06;41.36
6530;BME280;3298;42.688;23.366;2023-03-20T10:33:52;51766.22;;;-145.06;41.33
6530;BME280;3298;42.688;23.366;2023-03-20T10:36:34;51798.97;;;-145.06;41.27
6530;BME280;3298;42.688;23.366;2023-03-20T10:39:09;51790.78;;;-145.06;40.88
6530;BME280;3298;42.688;23.366;2023-03-20T10:41:41;51758.03;;;-145.06;40.63
6530;BME280;3298;42.688;23.366;2023-03-20T10:44:15;51770.31;;;-145.06;40.55
6530;BME280;3298;42.688;23.366;2023-03-20T10:46:48;51762.13;;;-145.06;40.27
6530;BME280;3298;42.688;23.366;2023-03-20T10:49:19;51778.50;;;-145.06;40.59
6530;BME280;3298;42.688;23.366;2023-03-20T10:51:51;51782.59;;;-145.06;40.24
6530;BME280;3298;42.688;23.366;2023-03-20T10:54:22;51790.78;;;-145.06;40.42
6530;BME280;3298;42.688;23.366;2023-03-20T10:56:51;51782.59;;;-145.06;40.14
6530;BME280;3298;42.688;23.366;2023-03-20T10:59:23;51790.78;;;-145.06;39.66
6530;BME280;3298;42.688;23.366;2023-03-20T11:01:52;51776.44;;;-145.06;39.34
6530;BME280;3298;42.688;23.366;2023-03-20T11:04:19;51913.56;;;-145.06;31.70
6530;BME280;3298;42.688;23.366;2023-03-20T11:06:50;52148.97;;;-145.06;26.47
6530;BME280;3298;42.688;23.366;2023-03-20T11:09:22;52318.88;;;-145.06;24.44
6530;BME280;3298;42.688;23.366;2023-03-20T11:11:55;52279.97;;;-145.06;23.67
6530;BME280;3298;42.688;23.366;2023-03-20T11:14:25;52134.66;;;-145.06;23.84
6530;BME280;3298;42.688;23.366;2023-03-20T11:16:53;52044.56;;;-145.06;23.08
6530;BME280;3298;42.688;23.366;2023-03-20T11:19:22;51796.91;;;-145.06;23.31
6530;BME280;3298;42.688;23.366;2023-03-20T11:21:51;51876.75;;;-145.06;22.97
6530;BME280;3298;42.688;23.366;2023-03-20T11:24:25;52003.63;;;-145.06;22.78
6530;BME280;3298;42.688;23.366;2023-03-20T11:26:52;52210.38;;;-145.06;23.08
6530;BME280;3298;42.688;23.366;2023-03-20T11:29:25;52237.00;;;-145.06;22.75
6530;BME280;3298;42.688;23.366;2023-03-20T11:32:02;52015.91;;;-145.06;22.95
6530;BME280;3298;42.688;23.366;2023-03-20T11:34:30;52065.03;;;-145.06;22.85
6530;BME280;3298;42.688;23.366;2023-03-20T11:37:00;52101.88;;;-145.06;22.53
6530;BME280;3298;42.688;23.366;2023-03-20T11:39:28;52030.25;;;-145.06;25.11
6530;BME280;3298;42.688;23.366;2023-03-20T11:41:58;51981.13;;;-145.06;27.07
6530;BME280;3298;42.688;23.366;2023-03-20T11:44:29;51901.28;;;-145.06;28.65
6530;BME280;3298;42.688;23.366;2023-03-20T11:46:59;51901.28;;;-145.06;29.28
6530;BME280;3298;42.688;23.366;2023-03-20T11:49:28;51903.34;;;-145.06;29.55
6530;BME280;3298;42.688;23.366;2023-03-20T11:52:00;51893.09;;;-145.06;30.12
6530;BME280;3298;42.688;23.366;2023-03-20T11:54:29;51878.78;;;-145.06;30.35
6530;BME280;3298;42.688;23.366;2023-03-20T11:56:57;51868.56;;;-145.06;30.28
6530;BME280;3298;42.688;23.366;2023-03-20T11:59:28;51858.31;;;-145.06;30.63
6530;BME280;3298;42.688;23.366;2023-03-20T12:01:56;51882.88;;;-145.06;30.08
6530;BME280;3298;42.688;23.366;2023-03-20T12:04:29;51946.31;;;-145.06;29.84
6530;BME280;3298;42.688;23.366;2023-03-20T12:06:59;51886.97;;;-145.06;29.83
6530;BME280;3298;42.688;23.366;2023-03-20T12:09:34;51868.56;;;-145.06;30.08
6530;BME280;3298;42.688;23.366;2023-03-20T12:12:09;51889.00;;;-145.06;29.91
6530;BME280;3298;42.688;23.366;2023-03-20T12:14:46;51893.09;;;-145.06;29.98
6530;BME280;3298;42.688;23.366;2023-03-20T12:17:31;51868.56;;;-145.06;29.66
6530;BME280;3298;42.688;23.366;2023-03-20T12:20:05;51886.97;;;-145.06;29.06
6530;BME280;3298;42.688;23.366;2023-03-20T12:22:35;51903.34;;;-145.06;28.32
6530;BME280;3298;42.688;23.366;2023-03-20T12:25:08;51882.88;;;-145.06;28.77
6530;BME280;3298;42.688;23.366;2023-03-20T12:27:46;51866.50;;;-145.06;29.17
6530;BME280;3298;42.688;23.366;2023-03-20T12:30:21;51919.72;;;-145.06;28.82
6530;BME280;3298;42.688;23.366;2023-03-20T12:32:57;51893.09;;;-145.06;29.17
6530;BME280;3298;42.688;23.366;2023-03-20T12:35:27;51884.91;;;-145.06;29.09
6530;BME280;3298;42.688;23.366;2023-03-20T12:37:54;51999.53;;;-145.06;29.07
6530;BME280;3298;42.688;23.366;2023-03-20T12:40:27;51884.91;;;-145.06;28.51
6530;BME280;3298;42.688;23.366;2023-03-20T12:43:02;51891.06;;;-145.06;28.05
6530;BME280;3298;42.688;23.366;2023-03-20T12:45:36;51899.25;;;-145.06;27.90
6530;BME280;3298;42.688;23.366;2023-03-20T12:48:12;51884.91;;;-145.06;27.47
6530;BME280;3298;42.688;23.366;2023-03-20T12:50:46;51889.00;;;-145.06;27.54
6530;BME280;3298;42.688;23.366;2023-03-20T12:53:28;51866.50;;;-145.06;27.77
6530;BME280;3298;42.688;23.366;2023-03-20T12:56:05;51886.97;;;-145.06;27.44
6530;BME280;3298;42.688;23.366;2023-03-20T12:58:40;51858.31;;;-145.06;27.89
6530;BME280;3298;42.688;23.366;2023-03-20T13:01:15;51889.00;;;-145.06;27.39
6530;BME280;3298;42.688;23.366;2023-03-20T13:04:10;51909.47;;;-145.06;27.63
6530;BME280;3298;42.688;23.366;2023-03-20T13:06:48;51909.47;;;-145.06;27.47
6530;BME280;3298;42.688;23.366;2023-03-20T13:09:41;51889.00;;;-145.06;27.85
6530;BME280;3298;42.688;23.366;2023-03-20T13:12:20;51903.34;;;-145.06;27.79